createdAt,value
2022-09-20T00:01:17.993Z,100.00
2022-09-20T00:03:46.704Z,100.00
2022-09-20T00:06:16.161Z,100.00
2022-09-20T00:08:43.598Z,100.00
2022-09-20T00:11:18.618Z,100.00
2022-09-20T00:13:48.027Z,100.00
2022-09-20T00:16:17.855Z,100.00
2022-09-20T00:18:48.722Z,100.00
2022-09-20T00:21:17.449Z,100.00
2022-09-20T00:23:44.480Z,100.00
2022-09-20T00:26:11.039Z,100.00
2022-09-20T00:28:37.632Z,100.00
2022-09-20T00:31:04.894Z,100.00
2022-09-20T00:33:50.007Z,100.00
2022-09-20T00:36:16.682Z,100.00
2022-09-20T00:38:43.274Z,100.00
2022-09-20T00:41:10.183Z,100.00
2022-09-20T00:43:46.947Z,100.00
2022-09-20T00:46:28.376Z,100.00
2022-09-20T00:49:10.962Z,100.00
2022-09-20T00:51:41.502Z,100.00
2022-09-20T00:54:11.372Z,100.00
2022-09-20T00:56:41.469Z,100.00
2022-09-20T00:59:16.734Z,100.00
2022-09-20T01:01:46.285Z,100.00
2022-09-20T01:04:16.115Z,100.00
2022-09-20T01:06:45.235Z,100.00
2022-09-20T01:09:11.810Z,100.00
2022-09-20T01:11:42.490Z,100.00
2022-09-20T01:14:09.322Z,100.00
2022-09-20T01:16:37.514Z,100.00
2022-09-20T01:19:14.645Z,100.00
2022-09-20T01:21:41.512Z,100.00
2022-09-20T01:24:14.369Z,100.00
2022-09-20T01:26:55.315Z,100.00
2022-09-20T01:30:06.380Z,100.00
2022-09-20T01:32:55.355Z,100.00
2022-09-20T01:35:25.289Z,100.00
2022-09-20T01:38:24.219Z,100.00
2022-09-20T01:40:50.723Z,100.00
2022-09-20T01:43:35.980Z,100.00
2022-09-20T01:46:16.516Z,100.00
2022-09-20T01:48:43.147Z,100.00
2022-09-20T01:51:28.086Z,100.00
2022-09-20T01:54:33.179Z,100.00
2022-09-20T01:57:05.875Z,100.00
2022-09-20T02:00:10.044Z,100.00
2022-09-20T02:02:48.694Z,100.00
2022-09-20T02:05:34.022Z,100.00
2022-09-20T02:08:21.402Z,100.00
2022-09-20T02:10:54.016Z,100.00
2022-09-20T02:13:29.157Z,100.00
2022-09-20T02:16:25.243Z,100.00
2022-09-20T02:19:06.764Z,100.00
2022-09-20T02:22:08.869Z,100.00
2022-09-20T02:24:35.524Z,100.00
2022-09-20T02:27:23.858Z,100.00
2022-09-20T02:30:08.657Z,100.00
2022-09-20T02:32:35.132Z,100.00
2022-09-20T02:35:15.081Z,100.00
2022-09-20T02:37:53.588Z,100.00
2022-09-20T02:40:47.130Z,100.00
2022-09-20T02:43:41.938Z,100.00
2022-09-20T02:46:36.912Z,100.00
2022-09-20T02:49:28.280Z,100.00
2022-09-20T02:51:59.823Z,100.00
2022-09-20T02:54:44.674Z,100.00
2022-09-20T02:57:33.673Z,100.00
2022-09-20T03:00:14.825Z,100.00
2022-09-20T03:03:18.817Z,100.00
2022-09-20T03:06:22.217Z,100.00
2022-09-20T03:09:36.435Z,100.00
2022-09-20T03:12:24.675Z,100.00
2022-09-20T03:15:10.914Z,100.00
2022-09-20T03:18:00.694Z,100.00
2022-09-20T03:20:43.740Z,100.00
2022-09-20T03:23:42.226Z,100.00
2022-09-20T03:26:42.483Z,100.00
2022-09-20T03:29:19.602Z,100.00
2022-09-20T03:32:27.675Z,100.00
2022-09-20T03:35:15.823Z,100.00
2022-09-20T03:38:02.650Z,100.00
2022-09-20T03:40:46.486Z,100.00
2022-09-20T03:43:13.372Z,100.00
2022-09-20T03:45:58.209Z,100.00
2022-09-20T03:48:48.908Z,100.00
2022-09-20T03:51:42.846Z,100.00
2022-09-20T03:54:15.414Z,100.00
2022-09-20T03:57:00.193Z,100.00
2022-09-20T03:59:42.060Z,100.00
2022-09-20T04:02:09.288Z,100.00
2022-09-20T04:04:57.422Z,100.00
2022-09-20T04:07:51.933Z,100.00
2022-09-20T04:10:25.566Z,100.00
2022-09-20T04:13:29.734Z,100.00
2022-09-20T04:16:32.161Z,100.00
2022-09-20T04:19:01.833Z,100.00
2022-09-20T04:21:54.860Z,100.00
2022-09-20T04:24:41.984Z,100.00
2022-09-20T04:27:30.214Z,100.00
2022-09-20T04:30:19.446Z,100.00
2022-09-20T04:33:18.292Z,100.00
2022-09-20T04:36:09.150Z,100.00
2022-09-20T04:38:36.476Z,100.00
2022-09-20T04:41:26.246Z,100.00
2022-09-20T04:43:58.468Z,100.00
2022-09-20T04:47:13.533Z,100.00
2022-09-20T04:49:46.234Z,100.00
2022-09-20T04:52:30.961Z,100.00
2022-09-20T04:55:52.872Z,100.00
2022-09-20T04:58:54.665Z,100.00
2022-09-20T05:01:33.549Z,100.00
2022-09-20T05:04:09.058Z,100.00
2022-09-20T05:07:07.267Z,100.00
2022-09-20T05:09:54.448Z,100.00
2022-09-20T05:12:38.877Z,100.00
2022-09-20T05:15:24.147Z,100.00
2022-09-20T05:18:18.660Z,100.00
2022-09-20T05:20:51.053Z,100.00
2022-09-20T05:23:32.733Z,100.00
2022-09-20T05:26:17.971Z,100.00
2022-09-20T05:29:05.070Z,100.00
2022-09-20T05:31:41.595Z,100.00
2022-09-20T05:34:34.160Z,100.00
2022-09-20T05:37:03.383Z,100.00
2022-09-20T05:39:49.666Z,100.00
2022-09-20T05:42:33.779Z,100.00
2022-09-20T05:45:17.977Z,100.00
2022-09-20T05:47:49.726Z,100.00
2022-09-20T05:50:34.359Z,100.00
2022-09-20T05:53:36.077Z,100.00
2022-09-20T05:56:35.812Z,100.00
2022-09-20T05:59:20.648Z,100.00
2022-09-20T06:02:18.443Z,100.00
2022-09-20T06:05:26.232Z,100.00
2022-09-20T06:08:04.544Z,100.00
2022-09-20T06:10:58.845Z,100.00
2022-09-20T06:13:37.459Z,100.00
2022-09-20T06:16:06.924Z,100.00
2022-09-20T06:18:51.644Z,100.00
2022-09-20T06:21:55.316Z,100.00
2022-09-20T06:24:39.256Z,100.00
2022-09-20T06:27:12.974Z,100.00
2022-09-20T06:29:45.816Z,100.00
2022-09-20T06:32:16.875Z,100.00
2022-09-20T06:34:43.491Z,100.00
2022-09-20T06:37:53.946Z,100.00
2022-09-20T06:40:54.473Z,100.00
2022-09-20T06:43:21.023Z,100.00
2022-09-20T06:45:48.540Z,100.00
2022-09-20T06:48:15.679Z,100.00
2022-09-20T06:50:46.846Z,100.00
2022-09-20T06:53:19.105Z,100.00
2022-09-20T06:55:46.846Z,100.00
2022-09-20T06:58:14.847Z,100.00
2022-09-20T07:00:41.388Z,100.00
2022-09-20T07:03:08.453Z,100.00
2022-09-20T07:05:36.239Z,100.00
2022-09-20T07:08:03.383Z,100.00
2022-09-20T07:10:30.628Z,100.00
2022-09-20T07:12:59.417Z,100.00
2022-09-20T07:15:31.375Z,100.00
2022-09-20T07:17:57.925Z,100.00
2022-09-20T07:20:24.532Z,100.00
2022-09-20T07:22:52.239Z,100.00
2022-09-20T07:25:19.097Z,100.00
2022-09-20T07:27:47.016Z,100.00
2022-09-20T07:30:18.866Z,100.00
2022-09-20T07:32:45.497Z,100.00
2022-09-20T07:35:13.075Z,100.00
2022-09-20T07:37:43.847Z,100.00
2022-09-20T07:40:13.739Z,100.00
2022-09-20T07:42:40.297Z,100.00
2022-09-20T07:45:07.719Z,100.00
2022-09-20T07:47:35.452Z,100.00
2022-09-20T07:50:03.796Z,100.00
2022-09-20T07:52:30.542Z,100.00
2022-09-20T07:54:57.463Z,100.00
2022-09-20T07:57:24.105Z,100.00
2022-09-20T07:59:50.689Z,100.00
2022-09-20T08:02:17.383Z,100.00
2022-09-20T08:04:44.278Z,100.00
2022-09-20T08:07:12.526Z,100.00
2022-09-20T08:09:39.141Z,100.00
2022-09-20T08:14:52.725Z,100.00
2022-09-20T08:17:19.653Z,100.00
2022-09-20T08:19:46.320Z,100.00
2022-09-20T08:22:13.071Z,100.00
2022-09-20T08:24:39.736Z,100.00
2022-09-20T08:27:06.318Z,100.00
2022-09-20T08:29:32.881Z,100.00
2022-09-20T08:32:01.465Z,100.00
2022-09-20T08:34:28.284Z,100.00
2022-09-20T08:36:56.504Z,100.00
2022-09-20T08:42:14.778Z,100.00
2022-09-20T08:44:46.912Z,100.00
2022-09-20T08:47:19.199Z,100.00
2022-09-20T08:49:46.383Z,100.00
2022-09-20T08:52:19.409Z,100.00
2022-09-20T08:54:46.809Z,100.00
2022-09-20T08:57:17.788Z,100.00
2022-09-20T08:59:44.914Z,100.00
2022-09-20T09:02:17.527Z,100.00
2022-09-20T09:04:45.424Z,100.00
2022-09-20T09:07:14.457Z,100.00
2022-09-20T09:09:44.282Z,100.00
2022-09-20T09:12:20.884Z,100.00
2022-09-20T09:14:57.210Z,100.00
2022-09-20T09:17:30.932Z,100.00
2022-09-20T09:20:08.254Z,100.00
2022-09-20T09:22:38.234Z,100.00
2022-09-20T09:25:15.266Z,100.00
2022-09-20T09:27:52.815Z,100.00
2022-09-20T09:30:37.333Z,100.00
2022-09-20T09:33:27.911Z,100.00
2022-09-20T09:36:14.837Z,100.00
2022-09-20T09:38:46.226Z,100.00
2022-09-20T09:41:29.793Z,100.00
2022-09-20T09:44:18.602Z,100.00
2022-09-20T09:46:45.647Z,100.00
2022-09-20T09:49:22.590Z,100.00
2022-09-20T09:52:03.064Z,100.00
2022-09-20T09:54:34.991Z,100.00
2022-09-20T09:57:30.519Z,100.00
2022-09-20T10:00:21.845Z,100.00
2022-09-20T10:03:01.124Z,100.00
2022-09-20T10:05:58.497Z,100.00
2022-09-20T10:08:28.598Z,100.00
2022-09-20T10:11:22.970Z,100.00
2022-09-20T10:14:10.656Z,100.00
2022-09-20T10:16:53.042Z,100.00
2022-09-20T10:19:25.791Z,100.00
2022-09-20T10:22:19.480Z,100.00
2022-09-20T10:24:51.484Z,100.00
2022-09-20T10:27:39.310Z,100.00
2022-09-20T10:30:19.908Z,100.00
2022-09-20T10:32:59.827Z,100.00
2022-09-20T10:35:55.704Z,100.00
2022-09-20T10:38:38.254Z,100.00
2022-09-20T10:41:48.370Z,100.00
2022-09-20T10:44:38.278Z,100.00
2022-09-20T10:47:30.787Z,100.00
2022-09-20T10:50:34.801Z,100.00
2022-09-20T10:53:21.002Z,100.00
2022-09-20T10:55:57.596Z,100.00
2022-09-20T10:58:56.923Z,100.00
2022-09-20T11:01:43.014Z,100.00
2022-09-20T11:04:15.744Z,100.00
2022-09-20T11:07:02.758Z,100.00
2022-09-20T11:09:38.249Z,100.00
2022-09-20T11:12:29.539Z,100.00
2022-09-20T11:15:04.369Z,98.74
2022-09-20T11:17:39.714Z,90.08
2022-09-20T11:20:15.672Z,84.08
2022-09-20T11:23:10.524Z,80.25
2022-09-20T11:25:47.238Z,87.97
2022-09-20T11:28:36.252Z,90.46
2022-09-20T11:31:25.931Z,87.79
2022-09-20T11:33:56.444Z,87.48
2022-09-20T11:36:34.220Z,86.63
2022-09-20T11:39:05.911Z,83.18
2022-09-20T11:41:33.500Z,78.27
2022-09-20T11:44:12.027Z,72.97
2022-09-20T11:47:00.467Z,75.30
2022-09-20T11:49:51.394Z,75.14
2022-09-20T11:52:34.136Z,78.89
2022-09-20T11:55:00.682Z,81.77
2022-09-20T11:57:28.476Z,82.96
2022-09-20T11:59:58.676Z,80.24
2022-09-20T12:02:37.230Z,83.17
2022-09-20T12:05:06.369Z,76.15
2022-09-20T12:07:38.124Z,75.29
2022-09-20T12:10:23.268Z,77.30
2022-09-20T12:12:57.593Z,79.67
2022-09-20T12:15:29.715Z,74.28
2022-09-20T12:17:56.187Z,80.06
2022-09-20T12:20:34.985Z,77.77
2022-09-20T12:23:42.260Z,78.87
2022-09-20T12:26:20.309Z,67.45
2022-09-20T12:28:57.062Z,62.22
2022-09-20T12:31:29.536Z,65.22
2022-09-20T12:34:14.370Z,64.88
2022-09-20T12:36:43.816Z,66.38
2022-09-20T12:39:17.574Z,55.21
2022-09-20T12:41:59.382Z,51.07
2022-09-20T12:44:37.799Z,44.94
2022-09-20T12:47:10.467Z,43.25
2022-09-20T12:50:00.507Z,43.02
2022-09-20T12:52:48.132Z,41.04
2022-09-20T12:55:33.597Z,37.68
2022-09-20T12:58:11.790Z,38.43
2022-09-20T13:00:46.419Z,35.52
2022-09-20T13:03:16.433Z,36.19
2022-09-20T13:05:49.434Z,35.75
2022-09-20T13:08:20.567Z,35.25
2022-09-20T13:10:57.734Z,35.78
2022-09-20T13:13:29.441Z,35.35
2022-09-20T13:15:57.652Z,38.80
2022-09-20T13:18:26.343Z,40.79
2022-09-20T13:20:54.865Z,41.80
2022-09-20T13:23:31.868Z,42.47
2022-09-20T13:25:58.717Z,43.01
2022-09-20T13:28:34.278Z,45.57
2022-09-20T13:31:22.755Z,45.63
2022-09-20T13:33:50.094Z,46.67
2022-09-20T13:36:26.475Z,48.30
2022-09-20T13:38:55.211Z,54.29
2022-09-20T13:41:23.039Z,57.16
2022-09-20T13:43:51.040Z,61.08
2022-09-20T13:46:43.707Z,56.83
2022-09-20T13:49:23.570Z,56.05
2022-09-20T13:51:50.749Z,54.91
2022-09-20T13:54:35.472Z,52.66
2022-09-20T13:57:05.120Z,53.40
2022-09-20T13:59:36.435Z,47.29
2022-09-20T14:02:03.914Z,48.00
2022-09-20T14:04:34.005Z,48.50
2022-09-20T14:07:00.863Z,48.72
2022-09-20T14:09:35.011Z,46.62
2022-09-20T14:12:03.781Z,43.45
2022-09-20T14:14:32.111Z,42.46
2022-09-20T14:17:01.730Z,42.70
2022-09-20T14:19:37.037Z,39.23
2022-09-20T14:22:04.979Z,41.88
2022-09-20T14:24:35.231Z,45.37
2022-09-20T14:27:20.504Z,46.42
2022-09-20T14:29:49.724Z,43.27
2022-09-20T14:32:19.393Z,40.43
2022-09-20T14:34:55.073Z,39.37
2022-09-20T14:37:25.909Z,41.65
2022-09-20T14:39:58.041Z,42.31
2022-09-20T14:42:41.124Z,44.15
2022-09-20T14:45:08.900Z,44.64
2022-09-20T14:47:38.604Z,44.95
2022-09-20T14:50:24.093Z,45.51
2022-09-20T14:53:00.996Z,44.04
2022-09-20T14:55:36.471Z,45.23
2022-09-20T14:58:12.304Z,46.28
2022-09-20T15:00:47.744Z,45.94
2022-09-20T15:03:17.229Z,46.75
2022-09-20T15:05:47.689Z,47.78
2022-09-20T15:08:15.633Z,47.77
2022-09-20T15:10:42.158Z,47.18
2022-09-20T15:13:10.809Z,47.45
2022-09-20T15:15:38.000Z,47.67
2022-09-20T15:18:12.847Z,49.30
2022-09-20T15:20:39.400Z,51.49
2022-09-20T15:23:08.678Z,49.87
2022-09-20T15:25:35.263Z,53.24
2022-09-20T15:28:01.885Z,53.10
2022-09-20T15:30:28.621Z,53.34
2022-09-20T15:32:57.665Z,53.34
2022-09-20T15:35:26.219Z,53.21
2022-09-20T15:37:52.750Z,52.17
2022-09-20T15:40:19.436Z,53.81
2022-09-20T15:42:47.072Z,53.09
2022-09-20T15:45:13.658Z,53.62
2022-09-20T15:47:40.564Z,54.40
2022-09-20T15:50:08.825Z,57.29
2022-09-20T15:52:37.395Z,59.14
2022-09-20T15:55:04.446Z,58.31
2022-09-20T15:57:31.943Z,55.90
2022-09-20T16:00:01.450Z,60.17
2022-09-20T16:02:35.161Z,58.12
2022-09-20T16:05:03.962Z,59.99
2022-09-20T16:07:30.505Z,58.21
2022-09-20T16:09:57.278Z,55.66
2022-09-20T16:12:25.124Z,57.71
2022-09-20T16:14:51.665Z,61.19
2022-09-20T16:17:18.778Z,60.29
2022-09-20T16:19:48.604Z,61.74
2022-09-20T16:22:16.030Z,62.74
2022-09-20T16:24:42.578Z,66.91
2022-09-20T16:27:09.812Z,68.49
2022-09-20T16:29:36.398Z,71.66
2022-09-20T16:32:03.874Z,71.85
2022-09-20T16:34:35.784Z,75.18
2022-09-20T16:37:10.334Z,76.17
2022-09-20T16:39:37.194Z,78.92
2022-09-20T16:42:06.625Z,79.78
2022-09-20T16:44:35.358Z,80.05
2022-09-20T16:47:05.224Z,80.03
2022-09-20T16:49:31.815Z,80.09
2022-09-20T16:51:58.374Z,79.39
2022-09-20T16:54:28.469Z,79.45
2022-09-20T16:56:57.656Z,82.44
2022-09-20T16:59:24.157Z,82.21
2022-09-20T17:01:51.358Z,83.88
2022-09-20T17:04:20.141Z,86.09
2022-09-20T17:06:47.889Z,87.73
2022-09-20T17:09:16.001Z,86.08
2022-09-20T17:11:49.171Z,86.25
2022-09-20T17:14:18.547Z,86.72
2022-09-20T17:16:47.842Z,88.69
2022-09-20T17:19:16.678Z,90.26
2022-09-20T17:21:50.246Z,91.25
2022-09-20T17:24:18.994Z,91.54
2022-09-20T17:26:46.092Z,93.25
2022-09-20T17:29:16.187Z,95.82
2022-09-20T17:31:48.786Z,93.84
2022-09-20T17:34:21.454Z,94.67
2022-09-20T17:36:48.379Z,94.24
2022-09-20T17:39:16.159Z,93.19
2022-09-20T17:41:48.062Z,94.14
2022-09-20T17:44:15.579Z,96.61
2022-09-20T17:46:44.485Z,97.72
2022-09-20T17:49:13.071Z,98.89
2022-09-20T17:51:51.093Z,100.00
2022-09-20T17:54:19.146Z,100.00
2022-09-20T17:56:51.207Z,100.00
2022-09-20T17:59:19.022Z,100.00
2022-09-20T18:01:48.244Z,100.00
2022-09-20T18:04:14.885Z,100.00
2022-09-20T18:06:44.333Z,100.00
2022-09-20T18:09:15.152Z,100.00
2022-09-20T18:11:48.746Z,100.00
2022-09-20T18:14:17.528Z,100.00
2022-09-20T18:16:47.072Z,100.00
2022-09-20T18:19:15.916Z,100.00
2022-09-20T18:21:42.835Z,100.00
2022-09-20T18:24:11.470Z,100.00
2022-09-20T18:26:39.201Z,100.00
2022-09-20T18:29:13.317Z,100.00
2022-09-20T18:31:45.244Z,100.00
2022-09-20T18:34:17.813Z,100.00
2022-09-20T18:36:52.988Z,100.00
2022-09-20T18:39:21.281Z,100.00
2022-09-20T18:41:50.471Z,100.00
2022-09-20T18:44:18.499Z,100.00
2022-09-20T18:46:46.176Z,100.00
2022-09-20T18:49:15.005Z,100.00
2022-09-20T18:51:43.283Z,100.00
2022-09-20T18:54:11.038Z,100.00
2022-09-20T18:56:39.682Z,100.00
2022-09-20T18:59:27.449Z,100.00
2022-09-20T19:02:04.668Z,100.00
2022-09-20T19:04:53.212Z,100.00
2022-09-20T19:07:40.589Z,100.00
2022-09-20T19:10:48.568Z,100.00
2022-09-20T19:13:38.061Z,100.00
2022-09-20T19:16:19.677Z,100.00
2022-09-20T19:18:49.095Z,100.00
2022-09-20T19:21:51.211Z,100.00
2022-09-20T19:24:45.112Z,100.00
2022-09-20T19:27:13.891Z,100.00
2022-09-20T19:29:41.011Z,100.00
2022-09-20T19:32:14.911Z,100.00
2022-09-20T19:34:46.753Z,100.00
2022-09-20T19:37:19.104Z,100.00
2022-09-20T19:40:03.853Z,100.00
2022-09-20T19:43:09.139Z,100.00
2022-09-20T19:45:44.732Z,100.00
2022-09-20T19:48:45.007Z,100.00
2022-09-20T19:51:12.640Z,100.00
2022-09-20T19:53:40.083Z,100.00
2022-09-20T19:56:12.711Z,100.00
2022-09-20T19:58:45.359Z,100.00
2022-09-20T20:01:12.762Z,100.00
2022-09-20T20:03:39.563Z,100.00
2022-09-20T20:06:29.187Z,100.00
2022-09-20T20:09:25.254Z,100.00
2022-09-20T20:12:06.855Z,100.00
2022-09-20T20:14:40.255Z,100.00
2022-09-20T20:17:25.686Z,100.00
2022-09-20T20:19:52.134Z,100.00
2022-09-20T20:22:36.791Z,100.00
2022-09-20T20:25:03.944Z,100.00
2022-09-20T20:27:32.446Z,100.00
2022-09-20T20:29:58.998Z,100.00
2022-09-20T20:32:25.831Z,100.00
2022-09-20T20:34:52.427Z,100.00
2022-09-20T20:37:18.960Z,100.00
2022-09-20T20:39:45.794Z,100.00
2022-09-20T20:42:12.733Z,100.00
2022-09-20T20:44:39.377Z,100.00
2022-09-20T20:47:07.122Z,100.00
2022-09-20T20:49:33.848Z,100.00
2022-09-20T20:52:04.546Z,100.00
2022-09-20T20:54:32.242Z,100.00
2022-09-20T20:56:59.451Z,100.00
2022-09-20T20:59:26.093Z,100.00
2022-09-20T21:01:52.759Z,100.00
2022-09-20T21:04:19.968Z,100.00
2022-09-20T21:06:46.564Z,100.00
2022-09-20T21:09:13.484Z,100.00
2022-09-20T21:11:44.273Z,100.00
2022-09-20T21:14:12.664Z,100.00
2022-09-20T21:16:45.058Z,100.00
2022-09-20T21:19:15.510Z,100.00
2022-09-20T21:21:44.193Z,100.00
2022-09-20T21:24:13.434Z,100.00
2022-09-20T21:26:40.696Z,100.00
2022-09-20T21:29:12.252Z,100.00
2022-09-20T21:31:39.819Z,100.00
2022-09-20T21:34:08.075Z,100.00
2022-09-20T21:36:35.961Z,100.00
2022-09-20T21:39:03.843Z,100.00
2022-09-20T21:41:32.507Z,100.00
2022-09-20T21:44:02.172Z,100.00
2022-09-20T21:46:33.261Z,100.00
2022-09-20T21:49:03.934Z,100.00
2022-09-20T21:51:31.365Z,100.00
2022-09-20T21:53:59.649Z,100.00
2022-09-20T21:56:27.701Z,100.00
2022-09-20T21:58:55.012Z,100.00
2022-09-20T22:01:26.719Z,100.00
2022-09-20T22:04:00.129Z,100.00
2022-09-20T22:06:29.942Z,100.00
2022-09-20T22:08:58.465Z,100.00
2022-09-20T22:11:26.976Z,100.00
2022-09-20T22:13:55.179Z,100.00
2022-09-20T22:16:23.719Z,100.00
2022-09-20T22:18:50.614Z,100.00
2022-09-20T22:21:26.278Z,100.00
2022-09-20T22:23:58.617Z,100.00
2022-09-20T22:26:27.975Z,100.00
2022-09-20T22:28:54.782Z,100.00
2022-09-20T22:31:24.174Z,100.00
2022-09-20T22:33:55.631Z,100.00
2022-09-20T22:36:28.650Z,100.00
2022-09-20T22:38:56.034Z,100.00
2022-09-20T22:41:23.485Z,100.00
2022-09-20T22:43:50.458Z,100.00
2022-09-20T22:46:19.378Z,100.00
2022-09-20T22:48:46.627Z,100.00
2022-09-20T22:51:15.744Z,100.00
2022-09-20T22:53:42.908Z,100.00
2022-09-20T22:56:15.964Z,100.00
2022-09-20T22:58:45.152Z,100.00
2022-09-20T23:01:19.899Z,100.00
2022-09-20T23:03:57.824Z,100.00
2022-09-20T23:06:27.831Z,100.00
2022-09-20T23:08:57.243Z,100.00
2022-09-20T23:11:24.906Z,100.00
2022-09-20T23:13:56.533Z,100.00
2022-09-20T23:16:27.100Z,100.00
2022-09-20T23:18:55.071Z,100.00
2022-09-20T23:21:22.106Z,100.00
2022-09-20T23:23:54.067Z,100.00
2022-09-20T23:26:21.333Z,100.00
2022-09-20T23:28:55.442Z,100.00
2022-09-20T23:31:22.861Z,100.00
2022-09-20T23:33:55.184Z,100.00
2022-09-20T23:36:22.671Z,100.00
2022-09-20T23:38:50.074Z,100.00
2022-09-20T23:41:19.171Z,100.00
2022-09-20T23:43:45.910Z,100.00
2022-09-20T23:46:14.471Z,100.00
2022-09-20T23:48:41.917Z,100.00
2022-09-20T23:51:11.274Z,100.00
2022-09-20T23:53:37.975Z,100.00
2022-09-20T23:56:06.143Z,100.00
2022-09-20T23:58:35.800Z,100.00
